sensor_id;sensor_type;location;lat;lon;timestamp;P1;durP1;ratioP1;P2;durP2;ratioP2
16735;SDS011;17990;49.548;9.730;2024-02-16T00:01:59;6.47;;;3.60;;
16735;SDS011;17990;49.548;9.730;2024-02-16T00:04:26;5.77;;;3.90;;
16735;SDS011;17990;49.548;9.730;2024-02-16T00:06:52;7.23;;;3.63;;
16735;SDS011;17990;49.548;9.730;2024-02-16T00:09:19;6.37;;;3.93;;
16735;SDS011;17990;49.548;9.730;2024-02-16T00:11:47;7.23;;;3.73;;
16735;SDS011;17990;49.548;9.730;2024-02-16T00:14:15;5.73;;;3.50;;
16735;SDS011;17990;49.548;9.730;2024-02-16T00:16:42;8.97;;;4.00;;
16735;SDS011;17990;49.548;9.730;2024-02-16T00:19:09;6.20;;;3.80;;
16735;SDS011;17990;49.548;9.730;2024-02-16T00:21:36;6.97;;;3.70;;
16735;SDS011;17990;49.548;9.730;2024-02-16T00:24:04;7.60;;;4.40;;
16735;SDS011;17990;49.548;9.730;2024-02-16T00:26:31;8.70;;;4.20;;
16735;SDS011;17990;49.548;9.730;2024-02-16T00:28:59;10.03;;;4.20;;
16735;SDS011;17990;49.548;9.730;2024-02-16T00:31:25;10.90;;;4.50;;
16735;SDS011;17990;49.548;9.730;2024-02-16T00:33:52;6.63;;;3.90;;
16735;SDS011;17990;49.548;9.730;2024-02-16T00:36:19;6.47;;;4.43;;
16735;SDS011;17990;49.548;9.730;2024-02-16T00:38:45;6.87;;;4.33;;
16735;SDS011;17990;49.548;9.730;2024-02-16T00:41:16;7.60;;;3.97;;
16735;SDS011;17990;49.548;9.730;2024-02-16T00:43:44;8.10;;;4.30;;
16735;SDS011;17990;49.548;9.730;2024-02-16T00:46:12;6.67;;;3.80;;
16735;SDS011;17990;49.548;9.730;2024-02-16T00:48:39;5.50;;;3.80;;
16735;SDS011;17990;49.548;9.730;2024-02-16T00:51:06;11.07;;;4.20;;
16735;SDS011;17990;49.548;9.730;2024-02-16T00:53:33;7.73;;;4.10;;
16735;SDS011;17990;49.548;9.730;2024-02-16T00:55:59;6.60;;;3.50;;
16735;SDS011;17990;49.548;9.730;2024-02-16T00:58:26;5.97;;;4.00;;
16735;SDS011;17990;49.548;9.730;2024-02-16T01:00:53;7.67;;;3.80;;
16735;SDS011;17990;49.548;9.730;2024-02-16T01:03:21;8.17;;;3.93;;
16735;SDS011;17990;49.548;9.730;2024-02-16T01:05:48;5.20;;;3.30;;
16735;SDS011;17990;49.548;9.730;2024-02-16T01:08:15;7.30;;;3.67;;
16735;SDS011;17990;49.548;9.730;2024-02-16T01:10:41;6.13;;;3.30;;
16735;SDS011;17990;49.548;9.730;2024-02-16T01:13:08;6.87;;;3.30;;
16735;SDS011;17990;49.548;9.730;2024-02-16T01:15:35;8.80;;;4.50;;
16735;SDS011;17990;49.548;9.730;2024-02-16T01:18:03;8.20;;;5.03;;
16735;SDS011;17990;49.548;9.730;2024-02-16T01:20:31;8.63;;;4.70;;
16735;SDS011;17990;49.548;9.730;2024-02-16T01:22:58;10.93;;;4.93;;
16735;SDS011;17990;49.548;9.730;2024-02-16T01:25:25;11.17;;;6.13;;
16735;SDS011;17990;49.548;9.730;2024-02-16T01:27:51;9.10;;;4.80;;
16735;SDS011;17990;49.548;9.730;2024-02-16T01:30:18;7.43;;;4.43;;
16735;SDS011;17990;49.548;9.730;2024-02-16T01:32:45;7.47;;;4.53;;
16735;SDS011;17990;49.548;9.730;2024-02-16T01:35:12;7.07;;;3.80;;
16735;SDS011;17990;49.548;9.730;2024-02-16T01:37:41;7.73;;;4.43;;
16735;SDS011;17990;49.548;9.730;2024-02-16T01:40:09;6.87;;;3.80;;
16735;SDS011;17990;49.548;9.730;2024-02-16T01:42:39;5.97;;;3.60;;
16735;SDS011;17990;49.548;9.730;2024-02-16T01:45:06;6.23;;;3.30;;
16735;SDS011;17990;49.548;9.730;2024-02-16T01:47:34;6.63;;;3.70;;
16735;SDS011;17990;49.548;9.730;2024-02-16T01:50:01;4.77;;;3.30;;
16735;SDS011;17990;49.548;9.730;2024-02-16T01:52:28;6.47;;;3.63;;
16735;SDS011;17990;49.548;9.730;2024-02-16T01:54:57;5.60;;;3.60;;
16735;SDS011;17990;49.548;9.730;2024-02-16T01:57:24;7.50;;;3.50;;
16735;SDS011;17990;49.548;9.730;2024-02-16T01:59:51;5.90;;;3.47;;
16735;SDS011;17990;49.548;9.730;2024-02-16T02:02:18;6.17;;;3.60;;
16735;SDS011;17990;49.548;9.730;2024-02-16T02:04:45;8.20;;;3.60;;
16735;SDS011;17990;49.548;9.730;2024-02-16T02:07:13;6.30;;;3.70;;
16735;SDS011;17990;49.548;9.730;2024-02-16T02:09:41;7.70;;;3.47;;
16735;SDS011;17990;49.548;9.730;2024-02-16T02:12:09;7.23;;;3.77;;
16735;SDS011;17990;49.548;9.730;2024-02-16T02:14:36;9.13;;;4.10;;
16735;SDS011;17990;49.548;9.730;2024-02-16T02:17:03;7.77;;;4.00;;
16735;SDS011;17990;49.548;9.730;2024-02-16T02:19:30;7.83;;;4.07;;
16735;SDS011;17990;49.548;9.730;2024-02-16T02:21:57;9.30;;;3.80;;
16735;SDS011;17990;49.548;9.730;2024-02-16T02:24:25;6.73;;;4.30;;
16735;SDS011;17990;49.548;9.730;2024-02-16T02:26:51;6.60;;;4.27;;
16735;SDS011;17990;49.548;9.730;2024-02-16T02:29:18;6.70;;;4.03;;
16735;SDS011;17990;49.548;9.730;2024-02-16T02:31:45;8.53;;;3.57;;
16735;SDS011;17990;49.548;9.730;2024-02-16T02:34:12;7.97;;;3.70;;
16735;SDS011;17990;49.548;9.730;2024-02-16T02:36:39;6.60;;;3.57;;
16735;SDS011;17990;49.548;9.730;2024-02-16T02:39:06;7.43;;;3.53;;
16735;SDS011;17990;49.548;9.730;2024-02-16T02:41:34;7.63;;;3.50;;
16735;SDS011;17990;49.548;9.730;2024-02-16T02:44:00;6.17;;;3.60;;
16735;SDS011;17990;49.548;9.730;2024-02-16T02:46:27;5.37;;;3.10;;
16735;SDS011;17990;49.548;9.730;2024-02-16T02:48:54;7.03;;;3.63;;
16735;SDS011;17990;49.548;9.730;2024-02-16T02:51:21;5.83;;;3.77;;
16735;SDS011;17990;49.548;9.730;2024-02-16T02:53:47;6.57;;;3.70;;
16735;SDS011;17990;49.548;9.730;2024-02-16T02:56:14;6.37;;;3.40;;
16735;SDS011;17990;49.548;9.730;2024-02-16T02:58:42;5.87;;;3.77;;
16735;SDS011;17990;49.548;9.730;2024-02-16T03:01:09;11.17;;;3.77;;
16735;SDS011;17990;49.548;9.730;2024-02-16T03:03:35;6.00;;;3.47;;
16735;SDS011;17990;49.548;9.730;2024-02-16T03:06:02;5.53;;;3.27;;
16735;SDS011;17990;49.548;9.730;2024-02-16T03:08:29;5.77;;;3.50;;
16735;SDS011;17990;49.548;9.730;2024-02-16T03:10:56;8.83;;;3.63;;
16735;SDS011;17990;49.548;9.730;2024-02-16T03:13:25;4.87;;;3.50;;
16735;SDS011;17990;49.548;9.730;2024-02-16T03:15:53;9.20;;;4.23;;
16735;SDS011;17990;49.548;9.730;2024-02-16T03:18:20;9.00;;;4.70;;
16735;SDS011;17990;49.548;9.730;2024-02-16T03:20:47;7.37;;;3.70;;
16735;SDS011;17990;49.548;9.730;2024-02-16T03:23:15;7.83;;;4.00;;
16735;SDS011;17990;49.548;9.730;2024-02-16T03:25:42;7.17;;;3.87;;
16735;SDS011;17990;49.548;9.730;2024-02-16T03:28:09;5.47;;;3.20;;
16735;SDS011;17990;49.548;9.730;2024-02-16T03:30:37;8.30;;;3.43;;
16735;SDS011;17990;49.548;9.730;2024-02-16T03:33:05;8.20;;;3.73;;
16735;SDS011;17990;49.548;9.730;2024-02-16T03:35:32;8.17;;;3.37;;
16735;SDS011;17990;49.548;9.730;2024-02-16T03:37:58;6.07;;;3.40;;
16735;SDS011;17990;49.548;9.730;2024-02-16T03:40:25;6.63;;;4.77;;
16735;SDS011;17990;49.548;9.730;2024-02-16T03:42:52;6.80;;;3.80;;
16735;SDS011;17990;49.548;9.730;2024-02-16T03:45:19;5.50;;;3.50;;
16735;SDS011;17990;49.548;9.730;2024-02-16T03:47:47;6.77;;;3.30;;
16735;SDS011;17990;49.548;9.730;2024-02-16T03:50:18;6.67;;;4.00;;
16735;SDS011;17990;49.548;9.730;2024-02-16T03:52:45;6.70;;;3.87;;
16735;SDS011;17990;49.548;9.730;2024-02-16T03:55:12;6.93;;;3.90;;
16735;SDS011;17990;49.548;9.730;2024-02-16T03:57:39;6.47;;;3.37;;
16735;SDS011;17990;49.548;9.730;2024-02-16T04:00:07;5.03;;;3.80;;
16735;SDS011;17990;49.548;9.730;2024-02-16T04:02:34;6.97;;;3.60;;
16735;SDS011;17990;49.548;9.730;2024-02-16T04:05:01;10.40;;;3.60;;
16735;SDS011;17990;49.548;9.730;2024-02-16T04:07:29;11.10;;;4.27;;
16735;SDS011;17990;49.548;9.730;2024-02-16T04:09:56;9.37;;;3.73;;
16735;SDS011;17990;49.548;9.730;2024-02-16T04:12:23;5.70;;;3.60;;
16735;SDS011;17990;49.548;9.730;2024-02-16T04:14:50;7.17;;;3.67;;
16735;SDS011;17990;49.548;9.730;2024-02-16T04:17:17;5.63;;;3.67;;
16735;SDS011;17990;49.548;9.730;2024-02-16T04:19:43;9.33;;;4.17;;
16735;SDS011;17990;49.548;9.730;2024-02-16T04:22:10;6.63;;;4.20;;
16735;SDS011;17990;49.548;9.730;2024-02-16T04:24:38;8.40;;;3.80;;
16735;SDS011;17990;49.548;9.730;2024-02-16T04:27:05;6.40;;;3.70;;
16735;SDS011;17990;49.548;9.730;2024-02-16T04:29:32;8.53;;;3.50;;
16735;SDS011;17990;49.548;9.730;2024-02-16T04:31:58;4.80;;;3.50;;
16735;SDS011;17990;49.548;9.730;2024-02-16T04:34:25;7.37;;;3.73;;
16735;SDS011;17990;49.548;9.730;2024-02-16T04:36:52;8.10;;;3.93;;
16735;SDS011;17990;49.548;9.730;2024-02-16T04:39:19;6.13;;;3.70;;
16735;SDS011;17990;49.548;9.730;2024-02-16T04:41:47;6.07;;;3.60;;
16735;SDS011;17990;49.548;9.730;2024-02-16T04:44:14;9.67;;;3.80;;
16735;SDS011;17990;49.548;9.730;2024-02-16T04:46:40;6.03;;;3.73;;
16735;SDS011;17990;49.548;9.730;2024-02-16T04:49:07;7.10;;;4.93;;
16735;SDS011;17990;49.548;9.730;2024-02-16T04:51:34;5.53;;;3.67;;
16735;SDS011;17990;49.548;9.730;2024-02-16T04:54:04;7.57;;;3.73;;
16735;SDS011;17990;49.548;9.730;2024-02-16T04:56:31;4.33;;;3.30;;
16735;SDS011;17990;49.548;9.730;2024-02-16T04:58:59;4.43;;;3.27;;
16735;SDS011;17990;49.548;9.730;2024-02-16T05:01:25;7.87;;;3.77;;
16735;SDS011;17990;49.548;9.730;2024-02-16T05:03:53;4.87;;;3.30;;
16735;SDS011;17990;49.548;9.730;2024-02-16T05:06:20;6.53;;;3.77;;
16735;SDS011;17990;49.548;9.730;2024-02-16T05:08:48;7.07;;;3.63;;
16735;SDS011;17990;49.548;9.730;2024-02-16T05:11:15;4.77;;;3.50;;
16735;SDS011;17990;49.548;9.730;2024-02-16T05:13:42;6.13;;;3.60;;
16735;SDS011;17990;49.548;9.730;2024-02-16T05:16:10;7.30;;;4.27;;
16735;SDS011;17990;49.548;9.730;2024-02-16T05:18:37;4.37;;;3.30;;
16735;SDS011;17990;49.548;9.730;2024-02-16T05:21:04;6.27;;;3.53;;
16735;SDS011;17990;49.548;9.730;2024-02-16T05:23:31;7.60;;;3.63;;
16735;SDS011;17990;49.548;9.730;2024-02-16T05:25:58;8.70;;;3.87;;
16735;SDS011;17990;49.548;9.730;2024-02-16T05:28:24;10.57;;;5.37;;
16735;SDS011;17990;49.548;9.730;2024-02-16T05:30:51;9.60;;;6.43;;
16735;SDS011;17990;49.548;9.730;2024-02-16T05:33:19;14.97;;;8.20;;
16735;SDS011;17990;49.548;9.730;2024-02-16T05:35:46;17.40;;;6.53;;
16735;SDS011;17990;49.548;9.730;2024-02-16T05:38:19;13.17;;;6.27;;
16735;SDS011;17990;49.548;9.730;2024-02-16T05:40:57;11.93;;;6.67;;
16735;SDS011;17990;49.548;9.730;2024-02-16T05:43:24;13.47;;;8.20;;
16735;SDS011;17990;49.548;9.730;2024-02-16T05:45:50;23.13;;;11.87;;
16735;SDS011;17990;49.548;9.730;2024-02-16T05:48:17;24.40;;;13.97;;
16735;SDS011;17990;49.548;9.730;2024-02-16T05:50:45;26.93;;;14.67;;
16735;SDS011;17990;49.548;9.730;2024-02-16T05:53:12;21.10;;;10.30;;
16735;SDS011;17990;49.548;9.730;2024-02-16T05:55:39;15.60;;;9.33;;
16735;SDS011;17990;49.548;9.730;2024-02-16T05:58:06;12.43;;;6.93;;
16735;SDS011;17990;49.548;9.730;2024-02-16T06:00:33;8.83;;;5.50;;
16735;SDS011;17990;49.548;9.730;2024-02-16T06:03:00;7.50;;;4.43;;
16735;SDS011;17990;49.548;9.730;2024-02-16T06:05:27;10.73;;;4.67;;
16735;SDS011;17990;49.548;9.730;2024-02-16T06:07:55;7.53;;;4.97;;
16735;SDS011;17990;49.548;9.730;2024-02-16T06:10:23;6.30;;;4.50;;
16735;SDS011;17990;49.548;9.730;2024-02-16T06:12:50;10.13;;;4.00;;
16735;SDS011;17990;49.548;9.730;2024-02-16T06:15:17;5.47;;;3.93;;
16735;SDS011;17990;49.548;9.730;2024-02-16T06:17:44;7.50;;;3.60;;
16735;SDS011;17990;49.548;9.730;2024-02-16T06:20:11;8.60;;;3.77;;
16735;SDS011;17990;49.548;9.730;2024-02-16T06:22:38;8.73;;;3.93;;
16735;SDS011;17990;49.548;9.730;2024-02-16T06:25:07;6.93;;;4.10;;
16735;SDS011;17990;49.548;9.730;2024-02-16T06:27:34;8.77;;;4.40;;
16735;SDS011;17990;49.548;9.730;2024-02-16T06:30:01;7.37;;;4.00;;
16735;SDS011;17990;49.548;9.730;2024-02-16T06:32:29;5.40;;;3.80;;
16735;SDS011;17990;49.548;9.730;2024-02-16T06:34:56;8.80;;;4.43;;
16735;SDS011;17990;49.548;9.730;2024-02-16T06:37:22;5.97;;;4.30;;
16735;SDS011;17990;49.548;9.730;2024-02-16T06:39:49;10.47;;;4.20;;
16735;SDS011;17990;49.548;9.730;2024-02-16T06:42:18;5.73;;;4.27;;
16735;SDS011;17990;49.548;9.730;2024-02-16T06:44:45;6.87;;;3.53;;
16735;SDS011;17990;49.548;9.730;2024-02-16T06:47:11;6.33;;;3.43;;
16735;SDS011;17990;49.548;9.730;2024-02-16T06:49:38;7.33;;;3.60;;
16735;SDS011;17990;49.548;9.730;2024-02-16T06:52:05;8.63;;;3.77;;
16735;SDS011;17990;49.548;9.730;2024-02-16T06:54:34;7.57;;;3.73;;
16735;SDS011;17990;49.548;9.730;2024-02-16T06:57:01;7.90;;;3.43;;
16735;SDS011;17990;49.548;9.730;2024-02-16T06:59:29;8.93;;;4.17;;
16735;SDS011;17990;49.548;9.730;2024-02-16T07:01:56;6.57;;;3.77;;
16735;SDS011;17990;49.548;9.730;2024-02-16T07:04:22;6.70;;;3.50;;
16735;SDS011;17990;49.548;9.730;2024-02-16T07:06:49;10.40;;;4.00;;
16735;SDS011;17990;49.548;9.730;2024-02-16T07:09:16;7.43;;;4.10;;
16735;SDS011;17990;49.548;9.730;2024-02-16T07:11:42;12.80;;;4.50;;
16735;SDS011;17990;49.548;9.730;2024-02-16T07:14:11;15.27;;;5.97;;
16735;SDS011;17990;49.548;9.730;2024-02-16T07:16:39;8.97;;;4.63;;
16735;SDS011;17990;49.548;9.730;2024-02-16T07:19:06;8.63;;;4.80;;
16735;SDS011;17990;49.548;9.730;2024-02-16T07:21:33;8.80;;;4.60;;
16735;SDS011;17990;49.548;9.730;2024-02-16T07:24:00;7.63;;;4.37;;
16735;SDS011;17990;49.548;9.730;2024-02-16T07:26:27;5.23;;;3.60;;
16735;SDS011;17990;49.548;9.730;2024-02-16T07:28:54;10.83;;;4.23;;
16735;SDS011;17990;49.548;9.730;2024-02-16T07:31:21;6.10;;;3.97;;
16735;SDS011;17990;49.548;9.730;2024-02-16T07:33:49;6.73;;;4.13;;
16735;SDS011;17990;49.548;9.730;2024-02-16T07:36:15;9.63;;;4.43;;
16735;SDS011;17990;49.548;9.730;2024-02-16T07:38:44;7.67;;;4.57;;
16735;SDS011;17990;49.548;9.730;2024-02-16T07:41:11;6.37;;;4.20;;
16735;SDS011;17990;49.548;9.730;2024-02-16T07:43:37;8.97;;;4.30;;
16735;SDS011;17990;49.548;9.730;2024-02-16T07:46:04;11.30;;;4.97;;
16735;SDS011;17990;49.548;9.730;2024-02-16T07:48:33;9.50;;;5.23;;
16735;SDS011;17990;49.548;9.730;2024-02-16T07:51:01;12.87;;;5.67;;
16735;SDS011;17990;49.548;9.730;2024-02-16T07:53:28;10.73;;;4.87;;
16735;SDS011;17990;49.548;9.730;2024-02-16T07:55:58;6.87;;;3.60;;
16735;SDS011;17990;49.548;9.730;2024-02-16T07:58:25;8.20;;;5.17;;
16735;SDS011;17990;49.548;9.730;2024-02-16T08:00:52;6.97;;;4.90;;
16735;SDS011;17990;49.548;9.730;2024-02-16T08:03:19;6.57;;;4.30;;
16735;SDS011;17990;49.548;9.730;2024-02-16T08:05:46;8.17;;;4.00;;
16735;SDS011;17990;49.548;9.730;2024-02-16T08:08:14;7.80;;;4.10;;
16735;SDS011;17990;49.548;9.730;2024-02-16T08:10:41;8.43;;;3.73;;
16735;SDS011;17990;49.548;9.730;2024-02-16T08:13:07;5.07;;;3.70;;
16735;SDS011;17990;49.548;9.730;2024-02-16T08:15:34;6.00;;;3.60;;
16735;SDS011;17990;49.548;9.730;2024-02-16T08:18:01;6.07;;;3.50;;
16735;SDS011;17990;49.548;9.730;2024-02-16T08:20:28;6.30;;;3.20;;
16735;SDS011;17990;49.548;9.730;2024-02-16T08:22:54;7.13;;;3.33;;
16735;SDS011;17990;49.548;9.730;2024-02-16T08:25:22;6.33;;;2.90;;
16735;SDS011;17990;49.548;9.730;2024-02-16T08:27:49;5.90;;;2.90;;
16735;SDS011;17990;49.548;9.730;2024-02-16T08:30:16;4.77;;;2.67;;
16735;SDS011;17990;49.548;9.730;2024-02-16T08:32:43;7.50;;;3.03;;
16735;SDS011;17990;49.548;9.730;2024-02-16T08:35:09;6.20;;;2.97;;
16735;SDS011;17990;49.548;9.730;2024-02-16T08:37:39;5.03;;;3.23;;
16735;SDS011;17990;49.548;9.730;2024-02-16T08:40:06;5.77;;;3.30;;
16735;SDS011;17990;49.548;9.730;2024-02-16T08:42:40;8.50;;;5.17;;
16735;SDS011;17990;49.548;9.730;2024-02-16T08:45:07;6.67;;;4.47;;
16735;SDS011;17990;49.548;9.730;2024-02-16T08:47:35;5.20;;;3.33;;
16735;SDS011;17990;49.548;9.730;2024-02-16T08:50:02;7.23;;;3.00;;
16735;SDS011;17990;49.548;9.730;2024-02-16T08:52:29;6.03;;;3.23;;
16735;SDS011;17990;49.548;9.730;2024-02-16T08:54:57;5.10;;;3.10;;
16735;SDS011;17990;49.548;9.730;2024-02-16T08:57:24;5.03;;;3.50;;
16735;SDS011;17990;49.548;9.730;2024-02-16T08:59:52;8.37;;;4.20;;
16735;SDS011;17990;49.548;9.730;2024-02-16T09:02:19;5.93;;;4.00;;
16735;SDS011;17990;49.548;9.730;2024-02-16T09:04:47;6.70;;;3.67;;
16735;SDS011;17990;49.548;9.730;2024-02-16T09:07:14;8.73;;;3.77;;
16735;SDS011;17990;49.548;9.730;2024-02-16T09:09:40;7.97;;;4.57;;
16735;SDS011;17990;49.548;9.730;2024-02-16T09:12:08;7.53;;;4.23;;
16735;SDS011;17990;49.548;9.730;2024-02-16T09:14:36;14.03;;;10.87;;
16735;SDS011;17990;49.548;9.730;2024-02-16T09:17:04;7.90;;;3.90;;
16735;SDS011;17990;49.548;9.730;2024-02-16T09:19:30;6.40;;;3.60;;
16735;SDS011;17990;49.548;9.730;2024-02-16T09:21:57;6.80;;;3.30;;
16735;SDS011;17990;49.548;9.730;2024-02-16T09:24:27;3.43;;;2.53;;
16735;SDS011;17990;49.548;9.730;2024-02-16T09:26:54;8.57;;;2.57;;
16735;SDS011;17990;49.548;9.730;2024-02-16T09:29:21;15.80;;;10.27;;
16735;SDS011;17990;49.548;9.730;2024-02-16T09:31:48;5.83;;;4.03;;
16735;SDS011;17990;49.548;9.730;2024-02-16T09:34:17;6.83;;;2.97;;
16735;SDS011;17990;49.548;9.730;2024-02-16T09:36:44;8.17;;;2.53;;
16735;SDS011;17990;49.548;9.730;2024-02-16T09:39:10;6.73;;;2.90;;
16735;SDS011;17990;49.548;9.730;2024-02-16T09:41:37;3.07;;;2.40;;
16735;SDS011;17990;49.548;9.730;2024-02-16T09:44:08;7.97;;;2.97;;
16735;SDS011;17990;49.548;9.730;2024-02-16T09:46:35;9.97;;;4.13;;
16735;SDS011;17990;49.548;9.730;2024-02-16T09:49:02;5.17;;;3.33;;
16735;SDS011;17990;49.548;9.730;2024-02-16T09:51:31;6.47;;;3.73;;
16735;SDS011;17990;49.548;9.730;2024-02-16T09:54:02;9.73;;;4.27;;
16735;SDS011;17990;49.548;9.730;2024-02-16T09:56:29;5.70;;;3.17;;
16735;SDS011;17990;49.548;9.730;2024-02-16T09:58:56;10.50;;;4.53;;
16735;SDS011;17990;49.548;9.730;2024-02-16T10:01:23;9.43;;;3.30;;
16735;SDS011;17990;49.548;9.730;2024-02-16T10:03:50;5.77;;;3.07;;
16735;SDS011;17990;49.548;9.730;2024-02-16T10:06:17;5.97;;;2.80;;
16735;SDS011;17990;49.548;9.730;2024-02-16T10:08:50;6.93;;;2.97;;
16735;SDS011;17990;49.548;9.730;2024-02-16T10:11:18;8.07;;;2.67;;
16735;SDS011;17990;49.548;9.730;2024-02-16T10:13:55;5.97;;;2.87;;
16735;SDS011;17990;49.548;9.730;2024-02-16T10:16:22;3.53;;;2.27;;
16735;SDS011;17990;49.548;9.730;2024-02-16T10:18:49;4.67;;;2.50;;
16735;SDS011;17990;49.548;9.730;2024-02-16T10:21:23;5.60;;;2.20;;
16735;SDS011;17990;49.548;9.730;2024-02-16T10:23:59;6.40;;;3.90;;
16735;SDS011;17990;49.548;9.730;2024-02-16T10:26:27;9.10;;;3.40;;
16735;SDS011;17990;49.548;9.730;2024-02-16T10:28:55;3.63;;;3.17;;
16735;SDS011;17990;49.548;9.730;2024-02-16T10:31:23;5.83;;;2.60;;
16735;SDS011;17990;49.548;9.730;2024-02-16T10:33:55;7.07;;;2.93;;
16735;SDS011;17990;49.548;9.730;2024-02-16T10:36:23;5.17;;;2.10;;
16735;SDS011;17990;49.548;9.730;2024-02-16T10:38:51;5.07;;;2.13;;
16735;SDS011;17990;49.548;9.730;2024-02-16T10:41:21;3.67;;;2.10;;
16735;SDS011;17990;49.548;9.730;2024-02-16T10:43:51;4.40;;;1.60;;
16735;SDS011;17990;49.548;9.730;2024-02-16T10:46:20;5.07;;;1.53;;
16735;SDS011;17990;49.548;9.730;2024-02-16T10:48:47;6.90;;;1.80;;
16735;SDS011;17990;49.548;9.730;2024-02-16T10:51:13;3.50;;;1.83;;
16735;SDS011;17990;49.548;9.730;2024-02-16T10:53:43;4.50;;;1.93;;
16735;SDS011;17990;49.548;9.730;2024-02-16T10:56:12;2.83;;;1.30;;
16735;SDS011;17990;49.548;9.730;2024-02-16T10:58:41;2.90;;;1.37;;
16735;SDS011;17990;49.548;9.730;2024-02-16T11:01:08;3.23;;;1.50;;
16735;SDS011;17990;49.548;9.730;2024-02-16T11:03:37;8.90;;;2.27;;
16735;SDS011;17990;49.548;9.730;2024-02-16T11:06:11;8.47;;;1.90;;
16735;SDS011;17990;49.548;9.730;2024-02-16T11:08:43;7.80;;;1.50;;
16735;SDS011;17990;49.548;9.730;2024-02-16T11:11:09;3.90;;;1.43;;
16735;SDS011;17990;49.548;9.730;2024-02-16T11:13:38;6.63;;;1.50;;
16735;SDS011;17990;49.548;9.730;2024-02-16T11:16:08;3.03;;;1.40;;
16735;SDS011;17990;49.548;9.730;2024-02-16T11:18:38;7.07;;;1.93;;
16735;SDS011;17990;49.548;9.730;2024-02-16T11:21:06;2.57;;;1.27;;
16735;SDS011;17990;49.548;9.730;2024-02-16T11:23:34;2.73;;;1.50;;
16735;SDS011;17990;49.548;9.730;2024-02-16T11:26:01;3.50;;;1.20;;
16735;SDS011;17990;49.548;9.730;2024-02-16T11:28:31;4.80;;;1.50;;
16735;SDS011;17990;49.548;9.730;2024-02-16T11:30:58;1.80;;;1.00;;
16735;SDS011;17990;49.548;9.730;2024-02-16T11:33:26;3.73;;;1.27;;
16735;SDS011;17990;49.548;9.730;2024-02-16T11:35:55;1.97;;;1.30;;
16735;SDS011;17990;49.548;9.730;2024-02-16T11:38:23;4.50;;;1.20;;
16735;SDS011;17990;49.548;9.730;2024-02-16T11:40:57;1.67;;;1.10;;
16735;SDS011;17990;49.548;9.730;2024-02-16T11:43:24;3.97;;;1.50;;
16735;SDS011;17990;49.548;9.730;2024-02-16T11:45:51;3.30;;;1.10;;
16735;SDS011;17990;49.548;9.730;2024-02-16T11:48:19;5.57;;;1.83;;
16735;SDS011;17990;49.548;9.730;2024-02-16T11:50:48;3.47;;;1.77;;
16735;SDS011;17990;49.548;9.730;2024-02-16T11:53:16;8.60;;;1.90;;
16735;SDS011;17990;49.548;9.730;2024-02-16T11:55:47;4.77;;;1.93;;
16735;SDS011;17990;49.548;9.730;2024-02-16T11:58:14;6.90;;;1.80;;
16735;SDS011;17990;49.548;9.730;2024-02-16T12:00:42;2.60;;;1.37;;
16735;SDS011;17990;49.548;9.730;2024-02-16T12:03:09;3.10;;;1.43;;
16735;SDS011;17990;49.548;9.730;2024-02-16T12:05:36;6.30;;;1.33;;
16735;SDS011;17990;49.548;9.730;2024-02-16T12:08:07;2.13;;;1.10;;
16735;SDS011;17990;49.548;9.730;2024-02-16T12:10:35;2.47;;;1.10;;
16735;SDS011;17990;49.548;9.730;2024-02-16T12:13:03;5.37;;;1.70;;
16735;SDS011;17990;49.548;9.730;2024-02-16T12:15:30;2.77;;;1.37;;
16735;SDS011;17990;49.548;9.730;2024-02-16T12:18:00;6.97;;;1.87;;
16735;SDS011;17990;49.548;9.730;2024-02-16T12:20:27;5.90;;;1.60;;
16735;SDS011;17990;49.548;9.730;2024-02-16T12:22:56;7.93;;;1.90;;
16735;SDS011;17990;49.548;9.730;2024-02-16T12:25:25;4.03;;;1.23;;
16735;SDS011;17990;49.548;9.730;2024-02-16T12:27:52;6.47;;;1.50;;
16735;SDS011;17990;49.548;9.730;2024-02-16T12:30:18;6.90;;;1.53;;
16735;SDS011;17990;49.548;9.730;2024-02-16T12:32:45;3.80;;;1.17;;
16735;SDS011;17990;49.548;9.730;2024-02-16T12:35:12;4.00;;;1.37;;
16735;SDS011;17990;49.548;9.730;2024-02-16T12:37:38;4.30;;;1.20;;
16735;SDS011;17990;49.548;9.730;2024-02-16T12:40:06;3.43;;;1.10;;
16735;SDS011;17990;49.548;9.730;2024-02-16T12:42:35;4.45;;;1.67;;
16735;SDS011;17990;49.548;9.730;2024-02-16T12:45:01;6.10;;;1.93;;
16735;SDS011;17990;49.548;9.730;2024-02-16T12:47:28;4.90;;;1.73;;
16735;SDS011;17990;49.548;9.730;2024-02-16T12:49:55;2.33;;;1.23;;
16735;SDS011;17990;49.548;9.730;2024-02-16T12:52:22;3.33;;;1.50;;
16735;SDS011;17990;49.548;9.730;2024-02-16T12:54:49;5.55;;;1.90;;
16735;SDS011;17990;49.548;9.730;2024-02-16T12:57:16;4.40;;;1.50;;
16735;SDS011;17990;49.548;9.730;2024-02-16T12:59:44;3.50;;;1.33;;
16735;SDS011;17990;49.548;9.730;2024-02-16T13:02:11;4.20;;;1.80;;
16735;SDS011;17990;49.548;9.730;2024-02-16T13:04:38;9.40;;;1.95;;
16735;SDS011;17990;49.548;9.730;2024-02-16T13:07:05;1.83;;;1.27;;
16735;SDS011;17990;49.548;9.730;2024-02-16T13:09:31;6.55;;;1.65;;
16735;SDS011;17990;49.548;9.730;2024-02-16T13:11:58;2.30;;;1.30;;
16735;SDS011;17990;49.548;9.730;2024-02-16T13:14:25;4.57;;;1.17;;
16735;SDS011;17990;49.548;9.730;2024-02-16T13:16:53;3.75;;;1.55;;
16735;SDS011;17990;49.548;9.730;2024-02-16T13:19:20;10.13;;;1.60;;
16735;SDS011;17990;49.548;9.730;2024-02-16T13:21:47;5.40;;;1.63;;
16735;SDS011;17990;49.548;9.730;2024-02-16T13:24:13;4.00;;;1.38;;
16735;SDS011;17990;49.548;9.730;2024-02-16T13:26:40;5.00;;;1.77;;
16735;SDS011;17990;49.548;9.730;2024-02-16T13:29:07;2.92;;;1.60;;
16735;SDS011;17990;49.548;9.730;2024-02-16T13:31:33;3.78;;;2.10;;
16735;SDS011;17990;49.548;9.730;2024-02-16T13:34:02;4.45;;;1.63;;
16735;SDS011;17990;49.548;9.730;2024-02-16T13:36:28;6.78;;;1.83;;
16735;SDS011;17990;49.548;9.730;2024-02-16T13:38:56;4.15;;;1.50;;
16735;SDS011;17990;49.548;9.730;2024-02-16T13:41:22;3.10;;;1.50;;
16735;SDS011;17990;49.548;9.730;2024-02-16T13:43:50;5.30;;;2.10;;
16735;SDS011;17990;49.548;9.730;2024-02-16T13:46:17;4.83;;;1.87;;
16735;SDS011;17990;49.548;9.730;2024-02-16T13:48:44;3.00;;;1.30;;
16735;SDS011;17990;49.548;9.730;2024-02-16T13:51:12;3.40;;;1.50;;
16735;SDS011;17990;49.548;9.730;2024-02-16T13:53:38;4.33;;;1.80;;
16735;SDS011;17990;49.548;9.730;2024-02-16T13:56:05;7.37;;;1.93;;
16735;SDS011;17990;49.548;9.730;2024-02-16T13:58:33;5.00;;;1.70;;
16735;SDS011;17990;49.548;9.730;2024-02-16T14:01:02;6.13;;;1.87;;
16735;SDS011;17990;49.548;9.730;2024-02-16T14:03:29;12.60;;;2.30;;
16735;SDS011;17990;49.548;9.730;2024-02-16T14:05:56;6.07;;;1.83;;
16735;SDS011;17990;49.548;9.730;2024-02-16T14:08:25;5.33;;;1.70;;
16735;SDS011;17990;49.548;9.730;2024-02-16T14:10:52;4.87;;;1.60;;
16735;SDS011;17990;49.548;9.730;2024-02-16T14:13:18;2.70;;;1.53;;
16735;SDS011;17990;49.548;9.730;2024-02-16T14:15:46;2.87;;;1.57;;
16735;SDS011;17990;49.548;9.730;2024-02-16T14:18:13;4.07;;;1.70;;
16735;SDS011;17990;49.548;9.730;2024-02-16T14:20:39;5.67;;;1.80;;
16735;SDS011;17990;49.548;9.730;2024-02-16T14:23:06;3.33;;;1.60;;
16735;SDS011;17990;49.548;9.730;2024-02-16T14:25:36;4.03;;;1.93;;
16735;SDS011;17990;49.548;9.730;2024-02-16T14:28:05;3.10;;;1.57;;
16735;SDS011;17990;49.548;9.730;2024-02-16T14:30:32;3.67;;;1.90;;
16735;SDS011;17990;49.548;9.730;2024-02-16T14:32:59;4.90;;;1.60;;
16735;SDS011;17990;49.548;9.730;2024-02-16T14:35:26;9.37;;;1.50;;
16735;SDS011;17990;49.548;9.730;2024-02-16T14:37:52;4.77;;;1.80;;
16735;SDS011;17990;49.548;9.730;2024-02-16T14:40:19;4.83;;;1.63;;
16735;SDS011;17990;49.548;9.730;2024-02-16T14:42:47;4.30;;;1.83;;
16735;SDS011;17990;49.548;9.730;2024-02-16T14:45:14;3.97;;;1.50;;
16735;SDS011;17990;49.548;9.730;2024-02-16T14:47:45;4.80;;;1.77;;